sensor_id;sensor_type;location;lat;lon;timestamp;P1;durP1;ratioP1;P2;durP2;ratioP2
29854;SDS011;16733;48.738;9.106;2023-03-21T00:05:05;4.68;;;1.90;;
29854;SDS011;16733;48.738;9.106;2023-03-21T00:07:31;2.92;;;1.58;;
29854;SDS011;16733;48.738;9.106;2023-03-21T00:13:18;1.80;;;1.58;;
29854;SDS011;16733;48.738;9.106;2023-03-21T00:15:44;3.35;;;1.58;;
29854;SDS011;16733;48.738;9.106;2023-03-21T00:21:40;1.88;;;1.58;;
29854;SDS011;16733;48.738;9.106;2023-03-21T00:24:06;3.92;;;1.98;;
29854;SDS011;16733;48.738;9.106;2023-03-21T00:29:54;2.33;;;1.58;;
29854;SDS011;16733;48.738;9.106;2023-03-21T00:32:20;3.53;;;2.00;;
29854;SDS011;16733;48.738;9.106;2023-03-21T00:34:47;3.60;;;2.40;;
29854;SDS011;16733;48.738;9.106;2023-03-21T00:40:35;5.00;;;3.70;;
29854;SDS011;16733;48.738;9.106;2023-03-21T00:43:01;3.33;;;2.70;;
29854;SDS011;16733;48.738;9.106;2023-03-21T00:45:26;2.75;;;2.30;;
29854;SDS011;16733;48.738;9.106;2023-03-21T00:47:52;2.90;;;2.08;;
29854;SDS011;16733;48.738;9.106;2023-03-21T00:50:18;4.40;;;1.80;;
29854;SDS011;16733;48.738;9.106;2023-03-21T00:52:43;5.38;;;1.92;;
29854;SDS011;16733;48.738;9.106;2023-03-21T00:55:11;2.45;;;1.50;;
29854;SDS011;16733;48.738;9.106;2023-03-21T00:57:42;3.50;;;1.75;;
29854;SDS011;16733;48.738;9.106;2023-03-21T01:03:32;2.42;;;1.63;;
29854;SDS011;16733;48.738;9.106;2023-03-21T01:09:28;1.77;;;1.42;;
29854;SDS011;16733;48.738;9.106;2023-03-21T01:11:53;3.67;;;1.70;;
29854;SDS011;16733;48.738;9.106;2023-03-21T01:14:20;5.90;;;2.30;;
29854;SDS011;16733;48.738;9.106;2023-03-21T01:16:46;6.85;;;1.85;;
29854;SDS011;16733;48.738;9.106;2023-03-21T01:19:13;2.55;;;1.83;;
29854;SDS011;16733;48.738;9.106;2023-03-21T01:21:41;3.28;;;1.95;;
29854;SDS011;16733;48.738;9.106;2023-03-21T01:24:07;1.73;;;1.50;;
29854;SDS011;16733;48.738;9.106;2023-03-21T01:26:33;2.55;;;1.67;;
29854;SDS011;16733;48.738;9.106;2023-03-21T01:32:23;2.72;;;1.70;;
29854;SDS011;16733;48.738;9.106;2023-03-21T01:34:49;3.08;;;1.70;;
29854;SDS011;16733;48.738;9.106;2023-03-21T01:37:14;2.90;;;1.77;;
29854;SDS011;16733;48.738;9.106;2023-03-21T01:39:43;2.85;;;2.08;;
29854;SDS011;16733;48.738;9.106;2023-03-21T01:42:11;2.60;;;1.60;;
29854;SDS011;16733;48.738;9.106;2023-03-21T01:44:55;2.58;;;1.60;;
29854;SDS011;16733;48.738;9.106;2023-03-21T01:47:22;2.05;;;1.50;;
29854;SDS011;16733;48.738;9.106;2023-03-21T01:49:49;2.50;;;1.50;;
29854;SDS011;16733;48.738;9.106;2023-03-21T01:55:40;4.95;;;1.70;;
29854;SDS011;16733;48.738;9.106;2023-03-21T01:58:07;2.75;;;1.48;;
29854;SDS011;16733;48.738;9.106;2023-03-21T02:03:56;3.25;;;1.73;;
29854;SDS011;16733;48.738;9.106;2023-03-21T02:09:15;3.05;;;1.50;;
29854;SDS011;16733;48.738;9.106;2023-03-21T02:11:47;4.43;;;1.65;;
29854;SDS011;16733;48.738;9.106;2023-03-21T02:14:14;3.60;;;1.58;;
29854;SDS011;16733;48.738;9.106;2023-03-21T02:16:45;2.75;;;1.60;;
29854;SDS011;16733;48.738;9.106;2023-03-21T02:27:44;3.22;;;1.95;;
29854;SDS011;16733;48.738;9.106;2023-03-21T02:38:58;5.78;;;2.00;;
29854;SDS011;16733;48.738;9.106;2023-03-21T02:46:58;4.00;;;2.10;;
29854;SDS011;16733;48.738;9.106;2023-03-21T02:49:33;2.25;;;1.80;;
29854;SDS011;16733;48.738;9.106;2023-03-21T02:52:10;4.65;;;1.60;;
29854;SDS011;16733;48.738;9.106;2023-03-21T02:54:41;4.17;;;2.23;;
29854;SDS011;16733;48.738;9.106;2023-03-21T02:57:08;4.22;;;1.83;;
29854;SDS011;16733;48.738;9.106;2023-03-21T02:59:34;1.77;;;1.60;;
29854;SDS011;16733;48.738;9.106;2023-03-21T03:02:02;5.85;;;2.35;;
29854;SDS011;16733;48.738;9.106;2023-03-21T03:04:28;3.00;;;1.75;;
29854;SDS011;16733;48.738;9.106;2023-03-21T03:09:42;4.32;;;1.58;;
29854;SDS011;16733;48.738;9.106;2023-03-21T03:28:52;3.55;;;2.20;;
29854;SDS011;16733;48.738;9.106;2023-03-21T03:31:22;2.97;;;1.77;;
29854;SDS011;16733;48.738;9.106;2023-03-21T03:33:54;3.83;;;2.00;;
29854;SDS011;16733;48.738;9.106;2023-03-21T03:36:24;2.55;;;1.50;;
29854;SDS011;16733;48.738;9.106;2023-03-21T03:38:54;3.67;;;1.60;;
29854;SDS011;16733;48.738;9.106;2023-03-21T03:41:23;3.00;;;1.85;;
29854;SDS011;16733;48.738;9.106;2023-03-21T03:43:52;2.40;;;1.73;;
29854;SDS011;16733;48.738;9.106;2023-03-21T03:49:28;2.88;;;1.75;;
29854;SDS011;16733;48.738;9.106;2023-03-21T03:52:04;4.03;;;1.98;;
29854;SDS011;16733;48.738;9.106;2023-03-21T03:54:33;3.85;;;1.70;;
29854;SDS011;16733;48.738;9.106;2023-03-21T04:00:24;3.40;;;1.50;;
29854;SDS011;16733;48.738;9.106;2023-03-21T04:02:51;3.38;;;1.67;;
29854;SDS011;16733;48.738;9.106;2023-03-21T04:08:38;2.70;;;1.83;;
29854;SDS011;16733;48.738;9.106;2023-03-21T04:11:04;2.70;;;1.73;;
29854;SDS011;16733;48.738;9.106;2023-03-21T04:13:30;2.13;;;1.75;;
29854;SDS011;16733;48.738;9.106;2023-03-21T04:15:57;4.00;;;2.75;;
29854;SDS011;16733;48.738;9.106;2023-03-21T04:18:23;3.88;;;2.03;;
29854;SDS011;16733;48.738;9.106;2023-03-21T04:20:48;3.42;;;1.67;;
29854;SDS011;16733;48.738;9.106;2023-03-21T04:23:15;3.53;;;1.77;;
29854;SDS011;16733;48.738;9.106;2023-03-21T04:25:43;3.67;;;2.08;;
29854;SDS011;16733;48.738;9.106;2023-03-21T04:28:09;2.63;;;1.60;;
29854;SDS011;16733;48.738;9.106;2023-03-21T04:31:32;6.53;;;2.03;;
29854;SDS011;16733;48.738;9.106;2023-03-21T04:34:00;2.28;;;1.58;;
29854;SDS011;16733;48.738;9.106;2023-03-21T04:36:27;3.70;;;2.63;;
29854;SDS011;16733;48.738;9.106;2023-03-21T04:39:03;2.85;;;1.95;;
29854;SDS011;16733;48.738;9.106;2023-03-21T04:41:33;2.58;;;1.75;;
29854;SDS011;16733;48.738;9.106;2023-03-21T04:44:01;2.90;;;2.10;;
29854;SDS011;16733;48.738;9.106;2023-03-21T04:46:27;2.63;;;1.77;;
29854;SDS011;16733;48.738;9.106;2023-03-21T04:48:52;3.03;;;1.98;;
29854;SDS011;16733;48.738;9.106;2023-03-21T04:54:40;5.25;;;1.85;;
29854;SDS011;16733;48.738;9.106;2023-03-21T04:57:06;4.15;;;2.03;;
29854;SDS011;16733;48.738;9.106;2023-03-21T05:02:54;1.50;;;1.40;;
29854;SDS011;16733;48.738;9.106;2023-03-21T05:05:21;2.03;;;1.50;;
29854;SDS011;16733;48.738;9.106;2023-03-21T05:11:09;2.88;;;1.90;;
29854;SDS011;16733;48.738;9.106;2023-03-21T05:13:35;6.18;;;2.47;;
29854;SDS011;16733;48.738;9.106;2023-03-21T05:16:01;4.47;;;2.30;;
29854;SDS011;16733;48.738;9.106;2023-03-21T05:21:48;4.75;;;2.13;;
29854;SDS011;16733;48.738;9.106;2023-03-21T05:24:15;4.32;;;2.05;;
29854;SDS011;16733;48.738;9.106;2023-03-21T05:30:10;3.03;;;1.52;;
29854;SDS011;16733;48.738;9.106;2023-03-21T05:32:37;3.80;;;1.83;;
29854;SDS011;16733;48.738;9.106;2023-03-21T05:35:03;2.92;;;1.90;;
29854;SDS011;16733;48.738;9.106;2023-03-21T05:37:30;2.60;;;2.08;;
29854;SDS011;16733;48.738;9.106;2023-03-21T05:39:55;4.88;;;2.15;;
29854;SDS011;16733;48.738;9.106;2023-03-21T05:42:21;2.85;;;1.73;;
29854;SDS011;16733;48.738;9.106;2023-03-21T05:44:46;3.50;;;1.98;;
29854;SDS011;16733;48.738;9.106;2023-03-21T05:47:13;3.85;;;1.70;;
29854;SDS011;16733;48.738;9.106;2023-03-21T05:53:02;3.05;;;1.63;;
29854;SDS011;16733;48.738;9.106;2023-03-21T05:55:27;2.90;;;1.90;;
29854;SDS011;16733;48.738;9.106;2023-03-21T06:01:15;3.13;;;1.77;;
29854;SDS011;16733;48.738;9.106;2023-03-21T06:03:40;3.85;;;2.13;;
29854;SDS011;16733;48.738;9.106;2023-03-21T06:06:06;2.80;;;1.88;;
29854;SDS011;16733;48.738;9.106;2023-03-21T06:11:54;5.20;;;2.53;;
29854;SDS011;16733;48.738;9.106;2023-03-21T06:14:21;5.05;;;2.50;;
29854;SDS011;16733;48.738;9.106;2023-03-21T06:16:48;5.18;;;1.92;;
29854;SDS011;16733;48.738;9.106;2023-03-21T06:19:14;2.55;;;1.88;;
29854;SDS011;16733;48.738;9.106;2023-03-21T06:21:40;2.80;;;2.03;;
29854;SDS011;16733;48.738;9.106;2023-03-21T06:24:06;5.70;;;2.05;;
29854;SDS011;16733;48.738;9.106;2023-03-21T06:26:32;4.30;;;1.85;;
29854;SDS011;16733;48.738;9.106;2023-03-21T06:28:57;3.58;;;1.73;;
29854;SDS011;16733;48.738;9.106;2023-03-21T06:31:23;6.18;;;2.47;;
29854;SDS011;16733;48.738;9.106;2023-03-21T06:33:50;2.90;;;1.70;;
29854;SDS011;16733;48.738;9.106;2023-03-21T06:36:16;5.68;;;2.25;;
29854;SDS011;16733;48.738;9.106;2023-03-21T06:38:42;6.72;;;2.55;;
29854;SDS011;16733;48.738;9.106;2023-03-21T06:41:08;3.83;;;2.40;;
29854;SDS011;16733;48.738;9.106;2023-03-21T06:46:56;2.75;;;2.15;;
29854;SDS011;16733;48.738;9.106;2023-03-21T06:49:22;3.30;;;1.92;;
29854;SDS011;16733;48.738;9.106;2023-03-21T06:51:48;2.65;;;1.70;;
29854;SDS011;16733;48.738;9.106;2023-03-21T06:54:13;3.67;;;2.00;;
29854;SDS011;16733;48.738;9.106;2023-03-21T06:56:41;4.18;;;2.13;;
29854;SDS011;16733;48.738;9.106;2023-03-21T06:59:07;3.13;;;1.92;;
29854;SDS011;16733;48.738;9.106;2023-03-21T07:01:33;3.28;;;1.75;;
29854;SDS011;16733;48.738;9.106;2023-03-21T07:03:59;3.53;;;2.30;;
29854;SDS011;16733;48.738;9.106;2023-03-21T07:06:26;3.20;;;1.77;;
29854;SDS011;16733;48.738;9.106;2023-03-21T07:08:52;3.00;;;1.75;;
29854;SDS011;16733;48.738;9.106;2023-03-21T07:11:19;5.97;;;1.90;;
29854;SDS011;16733;48.738;9.106;2023-03-21T07:13:46;5.60;;;1.50;;
29854;SDS011;16733;48.738;9.106;2023-03-21T07:16:13;2.00;;;1.45;;
29854;SDS011;16733;48.738;9.106;2023-03-21T07:18:40;2.70;;;1.25;;
29854;SDS011;16733;48.738;9.106;2023-03-21T07:24:28;2.15;;;1.60;;
29854;SDS011;16733;48.738;9.106;2023-03-21T07:26:53;3.00;;;1.50;;
29854;SDS011;16733;48.738;9.106;2023-03-21T07:29:20;1.80;;;1.60;;
29854;SDS011;16733;48.738;9.106;2023-03-21T07:31:47;2.83;;;1.55;;
29854;SDS011;16733;48.738;9.106;2023-03-21T07:34:13;2.92;;;1.60;;
29854;SDS011;16733;48.738;9.106;2023-03-21T07:36:40;3.13;;;1.40;;
29854;SDS011;16733;48.738;9.106;2023-03-21T07:39:06;2.55;;;1.70;;
29854;SDS011;16733;48.738;9.106;2023-03-21T07:41:32;4.60;;;1.60;;
29854;SDS011;16733;48.738;9.106;2023-03-21T07:43:57;3.78;;;1.35;;
29854;SDS011;16733;48.738;9.106;2023-03-21T07:46:23;3.42;;;1.65;;
29854;SDS011;16733;48.738;9.106;2023-03-21T07:48:52;2.88;;;1.40;;
29854;SDS011;16733;48.738;9.106;2023-03-21T07:51:17;7.30;;;3.58;;
29854;SDS011;16733;48.738;9.106;2023-03-21T07:53:43;3.53;;;2.50;;
29854;SDS011;16733;48.738;9.106;2023-03-21T07:56:12;4.22;;;2.53;;
29854;SDS011;16733;48.738;9.106;2023-03-21T07:58:38;4.80;;;2.60;;
29854;SDS011;16733;48.738;9.106;2023-03-21T08:01:03;4.03;;;1.92;;
29854;SDS011;16733;48.738;9.106;2023-03-21T08:03:29;3.20;;;1.70;;
29854;SDS011;16733;48.738;9.106;2023-03-21T08:05:57;2.33;;;1.33;;
29854;SDS011;16733;48.738;9.106;2023-03-21T08:08:25;3.42;;;2.20;;
29854;SDS011;16733;48.738;9.106;2023-03-21T08:10:50;3.78;;;1.65;;
29854;SDS011;16733;48.738;9.106;2023-03-21T08:16:38;2.45;;;1.38;;
29854;SDS011;16733;48.738;9.106;2023-03-21T08:19:04;3.40;;;1.88;;
29854;SDS011;16733;48.738;9.106;2023-03-21T08:35:24;5.90;;;1.52;;
29854;SDS011;16733;48.738;9.106;2023-03-21T08:37:50;1.30;;;1.20;;
29854;SDS011;16733;48.738;9.106;2023-03-21T08:40:16;2.88;;;1.30;;
29854;SDS011;16733;48.738;9.106;2023-03-21T08:46:04;2.40;;;1.25;;
29854;SDS011;16733;48.738;9.106;2023-03-21T08:48:30;2.50;;;1.60;;
29854;SDS011;16733;48.738;9.106;2023-03-21T08:54:19;1.65;;;1.10;;
29854;SDS011;16733;48.738;9.106;2023-03-21T08:56:45;2.85;;;1.58;;
29854;SDS011;16733;48.738;9.106;2023-03-21T08:59:11;1.65;;;1.25;;
29854;SDS011;16733;48.738;9.106;2023-03-21T09:01:37;2.47;;;1.20;;
29854;SDS011;16733;48.738;9.106;2023-03-21T09:04:03;2.25;;;1.30;;
29854;SDS011;16733;48.738;9.106;2023-03-21T09:06:31;1.70;;;1.00;;
29854;SDS011;16733;48.738;9.106;2023-03-21T09:08:57;1.73;;;1.20;;
29854;SDS011;16733;48.738;9.106;2023-03-21T09:11:23;4.30;;;1.20;;
29854;SDS011;16733;48.738;9.106;2023-03-21T09:13:49;3.05;;;1.10;;
29854;SDS011;16733;48.738;9.106;2023-03-21T09:16:15;1.85;;;1.10;;
29854;SDS011;16733;48.738;9.106;2023-03-21T09:18:41;2.63;;;1.27;;
29854;SDS011;16733;48.738;9.106;2023-03-21T09:21:11;1.58;;;0.95;;
29854;SDS011;16733;48.738;9.106;2023-03-21T09:23:41;2.63;;;1.10;;
29854;SDS011;16733;48.738;9.106;2023-03-21T09:26:10;2.47;;;0.90;;
29854;SDS011;16733;48.738;9.106;2023-03-21T09:28:37;3.53;;;1.10;;
29854;SDS011;16733;48.738;9.106;2023-03-21T09:31:04;5.10;;;0.98;;
29854;SDS011;16733;48.738;9.106;2023-03-21T09:33:32;1.73;;;1.08;;
29854;SDS011;16733;48.738;9.106;2023-03-21T09:35:59;2.42;;;1.20;;
29854;SDS011;16733;48.738;9.106;2023-03-21T09:38:25;1.35;;;0.70;;
29854;SDS011;16733;48.738;9.106;2023-03-21T09:40:56;2.30;;;1.13;;
29854;SDS011;16733;48.738;9.106;2023-03-21T09:52:11;0.93;;;0.80;;
29854;SDS011;16733;48.738;9.106;2023-03-21T09:54:46;1.40;;;0.90;;
29854;SDS011;16733;48.738;9.106;2023-03-21T09:57:21;1.63;;;0.85;;
29854;SDS011;16733;48.738;9.106;2023-03-21T09:59:58;2.03;;;1.00;;
29854;SDS011;16733;48.738;9.106;2023-03-21T10:02:41;1.40;;;0.90;;
29854;SDS011;16733;48.738;9.106;2023-03-21T10:05:20;1.23;;;1.10;;
29854;SDS011;16733;48.738;9.106;2023-03-21T10:07:58;2.10;;;1.08;;
29854;SDS011;16733;48.738;9.106;2023-03-21T10:10:29;2.03;;;1.10;;
29854;SDS011;16733;48.738;9.106;2023-03-21T10:12:58;1.13;;;0.80;;
29854;SDS011;16733;48.738;9.106;2023-03-21T10:15:25;1.15;;;0.80;;
29854;SDS011;16733;48.738;9.106;2023-03-21T10:23:49;2.17;;;0.98;;
29854;SDS011;16733;48.738;9.106;2023-03-21T10:26:17;2.00;;;0.93;;
29854;SDS011;16733;48.738;9.106;2023-03-21T10:32:08;1.42;;;0.80;;
29854;SDS011;16733;48.738;9.106;2023-03-21T10:34:45;2.72;;;0.70;;
29854;SDS011;16733;48.738;9.106;2023-03-21T10:40:36;1.55;;;0.77;;
29854;SDS011;16733;48.738;9.106;2023-03-21T10:46:24;2.58;;;0.90;;
29854;SDS011;16733;48.738;9.106;2023-03-21T10:48:52;1.92;;;0.85;;
29854;SDS011;16733;48.738;9.106;2023-03-21T10:51:19;1.33;;;0.80;;
29854;SDS011;16733;48.738;9.106;2023-03-21T10:53:56;1.45;;;0.60;;
29854;SDS011;16733;48.738;9.106;2023-03-21T10:56:28;1.55;;;0.70;;
29854;SDS011;16733;48.738;9.106;2023-03-21T10:58:56;1.13;;;0.50;;
29854;SDS011;16733;48.738;9.106;2023-03-21T11:01:45;0.77;;;0.60;;
29854;SDS011;16733;48.738;9.106;2023-03-21T11:04:15;0.98;;;0.50;;
29854;SDS011;16733;48.738;9.106;2023-03-21T11:09:17;1.08;;;0.60;;
29854;SDS011;16733;48.738;9.106;2023-03-21T11:11:53;2.05;;;0.70;;
29854;SDS011;16733;48.738;9.106;2023-03-21T11:17:47;0.60;;;0.50;;
29854;SDS011;16733;48.738;9.106;2023-03-21T11:20:15;0.98;;;0.50;;
29854;SDS011;16733;48.738;9.106;2023-03-21T11:22:43;0.70;;;0.50;;
29854;SDS011;16733;48.738;9.106;2023-03-21T11:25:48;0.60;;;0.60;;
29854;SDS011;16733;48.738;9.106;2023-03-21T11:28:16;1.30;;;0.70;;
29854;SDS011;16733;48.738;9.106;2023-03-21T11:30:48;0.57;;;0.45;;
29854;SDS011;16733;48.738;9.106;2023-03-21T11:33:16;1.67;;;0.55;;
29854;SDS011;16733;48.738;9.106;2023-03-21T11:35:43;7.20;;;0.75;;
29854;SDS011;16733;48.738;9.106;2023-03-21T11:38:26;1.25;;;0.63;;
29854;SDS011;16733;48.738;9.106;2023-03-21T11:40:57;1.75;;;0.60;;
29854;SDS011;16733;48.738;9.106;2023-03-21T11:43:27;1.42;;;0.88;;
29854;SDS011;16733;48.738;9.106;2023-03-21T11:46:01;1.20;;;0.80;;
29854;SDS011;16733;48.738;9.106;2023-03-21T11:48:40;1.23;;;0.90;;
29854;SDS011;16733;48.738;9.106;2023-03-21T12:07:59;1.77;;;1.20;;
29854;SDS011;16733;48.738;9.106;2023-03-21T12:10:53;1.00;;;0.88;;
29854;SDS011;16733;48.738;9.106;2023-03-21T12:13:32;3.13;;;0.90;;
29854;SDS011;16733;48.738;9.106;2023-03-21T12:16:32;1.75;;;0.98;;
29854;SDS011;16733;48.738;9.106;2023-03-21T12:38:06;2.42;;;1.33;;
29854;SDS011;16733;48.738;9.106;2023-03-21T12:43:26;5.20;;;1.20;;
29854;SDS011;16733;48.738;9.106;2023-03-21T12:46:02;0.90;;;0.80;;
29854;SDS011;16733;48.738;9.106;2023-03-21T12:51:07;2.75;;;1.27;;
29854;SDS011;16733;48.738;9.106;2023-03-21T12:56:19;1.73;;;1.10;;
29854;SDS011;16733;48.738;9.106;2023-03-21T12:59:00;6.57;;;2.67;;
29854;SDS011;16733;48.738;9.106;2023-03-21T13:01:26;1.95;;;1.05;;
29854;SDS011;16733;48.738;9.106;2023-03-21T13:06:45;1.20;;;0.85;;
29854;SDS011;16733;48.738;9.106;2023-03-21T13:21:27;0.95;;;0.50;;
29854;SDS011;16733;48.738;9.106;2023-03-21T13:24:48;5.93;;;0.50;;
29854;SDS011;16733;48.738;9.106;2023-03-21T13:27:32;0.30;;;0.30;;
29854;SDS011;16733;48.738;9.106;2023-03-21T13:35:53;0.68;;;0.50;;
29854;SDS011;16733;48.738;9.106;2023-03-21T13:38:48;1.17;;;0.50;;
29854;SDS011;16733;48.738;9.106;2023-03-21T13:41:20;2.95;;;1.00;;
29854;SDS011;16733;48.738;9.106;2023-03-21T13:54:00;0.60;;;0.30;;
29854;SDS011;16733;48.738;9.106;2023-03-21T13:56:26;0.30;;;0.30;;
29854;SDS011;16733;48.738;9.106;2023-03-21T13:58:58;1.08;;;0.90;;
29854;SDS011;16733;48.738;9.106;2023-03-21T14:04:37;0.47;;;0.47;;
29854;SDS011;16733;48.738;9.106;2023-03-21T14:07:05;0.65;;;0.40;;
29854;SDS011;16733;48.738;9.106;2023-03-21T14:12:56;1.48;;;0.60;;
29854;SDS011;16733;48.738;9.106;2023-03-21T14:15:23;0.90;;;0.60;;
29854;SDS011;16733;48.738;9.106;2023-03-21T14:17:53;1.85;;;0.77;;
29854;SDS011;16733;48.738;9.106;2023-03-21T14:20:29;1.70;;;0.73;;
29854;SDS011;16733;48.738;9.106;2023-03-21T14:22:57;2.80;;;0.90;;
29854;SDS011;16733;48.738;9.106;2023-03-21T14:25:24;2.03;;;0.90;;
29854;SDS011;16733;48.738;9.106;2023-03-21T14:27:58;4.32;;;0.80;;
29854;SDS011;16733;48.738;9.106;2023-03-21T14:30:32;4.53;;;1.10;;
29854;SDS011;16733;48.738;9.106;2023-03-21T14:33:07;3.72;;;0.85;;
29854;SDS011;16733;48.738;9.106;2023-03-21T14:35:50;1.35;;;0.80;;
29854;SDS011;16733;48.738;9.106;2023-03-21T14:38:24;2.72;;;1.05;;
29854;SDS011;16733;48.738;9.106;2023-03-21T14:40:52;4.63;;;0.98;;
29854;SDS011;16733;48.738;9.106;2023-03-21T14:43:20;1.95;;;1.30;;
29854;SDS011;16733;48.738;9.106;2023-03-21T14:45:47;2.30;;;1.15;;
29854;SDS011;16733;48.738;9.106;2023-03-21T14:48:15;2.13;;;0.95;;
29854;SDS011;16733;48.738;9.106;2023-03-21T14:50:51;2.40;;;1.00;;
29854;SDS011;16733;48.738;9.106;2023-03-21T14:56:41;2.08;;;1.00;;
29854;SDS011;16733;48.738;9.106;2023-03-21T14:59:12;0.90;;;0.63;;
29854;SDS011;16733;48.738;9.106;2023-03-21T15:05:07;1.90;;;0.70;;
29854;SDS011;16733;48.738;9.106;2023-03-21T15:07:34;1.38;;;0.70;;
29854;SDS011;16733;48.738;9.106;2023-03-21T15:13:22;2.45;;;1.10;;
29854;SDS011;16733;48.738;9.106;2023-03-21T15:15:51;3.20;;;1.23;;
29854;SDS011;16733;48.738;9.106;2023-03-21T15:18:21;1.58;;;0.90;;
29854;SDS011;16733;48.738;9.106;2023-03-21T15:24:21;2.03;;;1.10;;
29854;SDS011;16733;48.738;9.106;2023-03-21T15:30:18;4.97;;;1.30;;
29854;SDS011;16733;48.738;9.106;2023-03-21T15:35:54;4.43;;;1.42;;
29854;SDS011;16733;48.738;9.106;2023-03-21T15:38:37;4.70;;;1.10;;
29854;SDS011;16733;48.738;9.106;2023-03-21T15:44:28;4.10;;;2.08;;
29854;SDS011;16733;48.738;9.106;2023-03-21T15:46:54;2.70;;;1.77;;
29854;SDS011;16733;48.738;9.106;2023-03-21T15:49:33;5.07;;;1.95;;
29854;SDS011;16733;48.738;9.106;2023-03-21T15:52:11;11.52;;;1.85;;
29854;SDS011;16733;48.738;9.106;2023-03-21T15:58:04;4.18;;;1.80;;
29854;SDS011;16733;48.738;9.106;2023-03-21T16:03:36;6.57;;;1.75;;
29854;SDS011;16733;48.738;9.106;2023-03-21T16:09:18;6.70;;;2.20;;
29854;SDS011;16733;48.738;9.106;2023-03-21T16:11:49;4.78;;;1.67;;
29854;SDS011;16733;48.738;9.106;2023-03-21T16:14:16;4.82;;;2.45;;
29854;SDS011;16733;48.738;9.106;2023-03-21T16:20:15;4.85;;;1.60;;
29854;SDS011;16733;48.738;9.106;2023-03-21T16:22:44;5.43;;;1.80;;
29854;SDS011;16733;48.738;9.106;2023-03-21T16:25:26;4.70;;;1.70;;
29854;SDS011;16733;48.738;9.106;2023-03-21T16:27:54;9.77;;;2.22;;
29854;SDS011;16733;48.738;9.106;2023-03-21T16:30:20;10.35;;;2.22;;
29854;SDS011;16733;48.738;9.106;2023-03-21T16:32:47;9.20;;;2.10;;
29854;SDS011;16733;48.738;9.106;2023-03-21T16:35:14;6.53;;;2.05;;
29854;SDS011;16733;48.738;9.106;2023-03-21T16:38:17;4.60;;;1.60;;
29854;SDS011;16733;48.738;9.106;2023-03-21T16:40:43;3.88;;;1.55;;
29854;SDS011;16733;48.738;9.106;2023-03-21T16:43:09;4.78;;;2.20;;
29854;SDS011;16733;48.738;9.106;2023-03-21T16:45:35;6.95;;;2.13;;
29854;SDS011;16733;48.738;9.106;2023-03-21T16:48:01;5.07;;;2.00;;
29854;SDS011;16733;48.738;9.106;2023-03-21T16:50:31;4.50;;;2.33;;
29854;SDS011;16733;48.738;9.106;2023-03-21T16:53:04;6.53;;;1.70;;
29854;SDS011;16733;48.738;9.106;2023-03-21T16:55:30;7.38;;;2.55;;
29854;SDS011;16733;48.738;9.106;2023-03-21T16:57:57;6.28;;;2.60;;
29854;SDS011;16733;48.738;9.106;2023-03-21T17:03:46;6.10;;;2.00;;
29854;SDS011;16733;48.738;9.106;2023-03-21T17:06:16;3.13;;;1.95;;
29854;SDS011;16733;48.738;9.106;2023-03-21T17:12:09;2.47;;;1.73;;
29854;SDS011;16733;48.738;9.106;2023-03-21T17:14:38;3.13;;;1.42;;
29854;SDS011;16733;48.738;9.106;2023-03-21T17:17:05;2.80;;;1.73;;
29854;SDS011;16733;48.738;9.106;2023-03-21T17:19:33;2.45;;;1.40;;
29854;SDS011;16733;48.738;9.106;2023-03-21T17:21:59;7.18;;;1.98;;
29854;SDS011;16733;48.738;9.106;2023-03-21T17:24:25;5.63;;;1.85;;
29854;SDS011;16733;48.738;9.106;2023-03-21T17:26:50;4.90;;;1.70;;
29854;SDS011;16733;48.738;9.106;2023-03-21T17:29:16;4.55;;;2.15;;
29854;SDS011;16733;48.738;9.106;2023-03-21T17:31:42;3.13;;;1.92;;
29854;SDS011;16733;48.738;9.106;2023-03-21T17:34:11;6.75;;;1.70;;
29854;SDS011;16733;48.738;9.106;2023-03-21T17:36:38;8.43;;;1.80;;
29854;SDS011;16733;48.738;9.106;2023-03-21T17:39:06;4.38;;;2.58;;
29854;SDS011;16733;48.738;9.106;2023-03-21T17:41:33;5.22;;;1.98;;
29854;SDS011;16733;48.738;9.106;2023-03-21T17:43:59;6.60;;;2.28;;
29854;SDS011;16733;48.738;9.106;2023-03-21T17:49:47;5.65;;;3.10;;
29854;SDS011;16733;48.738;9.106;2023-03-21T17:52:12;4.50;;;2.55;;
29854;SDS011;16733;48.738;9.106;2023-03-21T17:54:39;5.95;;;2.00;;
29854;SDS011;16733;48.738;9.106;2023-03-21T17:57:04;9.93;;;3.80;;
29854;SDS011;16733;48.738;9.106;2023-03-21T17:59:30;5.38;;;1.77;;
29854;SDS011;16733;48.738;9.106;2023-03-21T18:01:55;14.00;;;2.60;;
29854;SDS011;16733;48.738;9.106;2023-03-21T18:04:21;10.95;;;2.95;;
29854;SDS011;16733;48.738;9.106;2023-03-21T18:06:46;5.85;;;1.90;;
29854;SDS011;16733;48.738;9.106;2023-03-21T18:12:35;10.30;;;2.63;;
29854;SDS011;16733;48.738;9.106;2023-03-21T18:15:01;12.38;;;2.85;;
29854;SDS011;16733;48.738;9.106;2023-03-21T18:17:27;3.13;;;2.03;;
29854;SDS011;16733;48.738;9.106;2023-03-21T18:19:53;4.63;;;2.33;;
29854;SDS011;16733;48.738;9.106;2023-03-21T18:22:19;4.45;;;2.53;;
29854;SDS011;16733;48.738;9.106;2023-03-21T18:24:45;3.28;;;1.65;;
29854;SDS011;16733;48.738;9.106;2023-03-21T18:27:10;5.00;;;2.28;;
29854;SDS011;16733;48.738;9.106;2023-03-21T18:29:37;3.28;;;2.25;;
29854;SDS011;16733;48.738;9.106;2023-03-21T18:32:03;4.85;;;2.72;;
29854;SDS011;16733;48.738;9.106;2023-03-21T18:37:51;7.07;;;2.22;;
29854;SDS011;16733;48.738;9.106;2023-03-21T18:43:39;5.07;;;2.50;;
29854;SDS011;16733;48.738;9.106;2023-03-21T18:46:06;6.57;;;2.90;;
29854;SDS011;16733;48.738;9.106;2023-03-21T18:48:32;6.97;;;2.50;;
29854;SDS011;16733;48.738;9.106;2023-03-21T18:50:57;6.80;;;2.70;;
29854;SDS011;16733;48.738;9.106;2023-03-21T18:53:23;6.90;;;3.15;;
29854;SDS011;16733;48.738;9.106;2023-03-21T18:55:49;8.88;;;4.95;;
29854;SDS011;16733;48.738;9.106;2023-03-21T18:58:14;11.68;;;4.50;;
29854;SDS011;16733;48.738;9.106;2023-03-21T19:00:41;5.53;;;2.55;;
29854;SDS011;16733;48.738;9.106;2023-03-21T19:03:07;6.45;;;3.28;;
29854;SDS011;16733;48.738;9.106;2023-03-21T19:05:35;7.53;;;3.15;;
29854;SDS011;16733;48.738;9.106;2023-03-21T19:08:04;9.50;;;3.10;;
29854;SDS011;16733;48.738;9.106;2023-03-21T19:10:30;8.77;;;3.00;;
29854;SDS011;16733;48.738;9.106;2023-03-21T19:12:56;11.10;;;3.25;;
29854;SDS011;16733;48.738;9.106;2023-03-21T19:15:22;6.28;;;2.97;;
29854;SDS011;16733;48.738;9.106;2023-03-21T19:21:10;5.97;;;2.90;;
29854;SDS011;16733;48.738;9.106;2023-03-21T19:23:36;5.55;;;3.13;;
29854;SDS011;16733;48.738;9.106;2023-03-21T19:26:02;12.18;;;3.63;;
29854;SDS011;16733;48.738;9.106;2023-03-21T19:28:27;9.38;;;4.32;;
29854;SDS011;16733;48.738;9.106;2023-03-21T19:30:53;6.80;;;3.85;;
29854;SDS011;16733;48.738;9.106;2023-03-21T19:40:06;7.85;;;3.92;;
29854;SDS011;16733;48.738;9.106;2023-03-21T19:42:32;6.22;;;3.40;;
29854;SDS011;16733;48.738;9.106;2023-03-21T19:48:22;6.28;;;2.85;;
29854;SDS011;16733;48.738;9.106;2023-03-21T19:50:48;6.75;;;3.53;;
29854;SDS011;16733;48.738;9.106;2023-03-21T19:56:36;6.10;;;3.25;;
29854;SDS011;16733;48.738;9.106;2023-03-21T19:59:02;6.22;;;3.40;;
29854;SDS011;16733;48.738;9.106;2023-03-21T20:01:28;6.65;;;2.83;;
29854;SDS011;16733;48.738;9.106;2023-03-21T20:04:10;6.70;;;3.17;;
29854;SDS011;16733;48.738;9.106;2023-03-21T20:06:36;8.27;;;3.10;;
29854;SDS011;16733;48.738;9.106;2023-03-21T20:09:02;6.70;;;3.13;;
29854;SDS011;16733;48.738;9.106;2023-03-21T20:11:29;8.00;;;3.20;;
29854;SDS011;16733;48.738;9.106;2023-03-21T20:13:54;4.75;;;2.83;;
29854;SDS011;16733;48.738;9.106;2023-03-21T20:19:42;5.47;;;2.60;;
29854;SDS011;16733;48.738;9.106;2023-03-21T20:22:08;5.88;;;2.88;;
29854;SDS011;16733;48.738;9.106;2023-03-21T20:27:55;10.48;;;2.38;;
29854;SDS011;16733;48.738;9.106;2023-03-21T20:30:21;8.32;;;2.80;;
29854;SDS011;16733;48.738;9.106;2023-03-21T20:36:08;3.28;;;2.03;;
29854;SDS011;16733;48.738;9.106;2023-03-21T20:38:35;9.00;;;2.25;;
29854;SDS011;16733;48.738;9.106;2023-03-21T20:41:02;5.00;;;2.22;;